sensor_id;sensor_type;location;lat;lon;timestamp;temperature;humidity
17879;DHT22;9065;51.050;13.758;2022-11-02T00:00:00;9.90;99.90
17879;DHT22;9065;51.050;13.758;2022-11-02T00:02:27;10.00;99.90
17879;DHT22;9065;51.050;13.758;2022-11-02T00:04:56;9.90;99.90
17879;DHT22;9065;51.050;13.758;2022-11-02T00:07:23;9.80;99.90
17879;DHT22;9065;51.050;13.758;2022-11-02T00:09:49;9.80;99.90
17879;DHT22;9065;51.050;13.758;2022-11-02T00:12:16;9.80;99.90
17879;DHT22;9065;51.050;13.758;2022-11-02T00:14:43;9.80;99.90
17879;DHT22;9065;51.050;13.758;2022-11-02T00:17:09;9.80;99.90
17879;DHT22;9065;51.050;13.758;2022-11-02T00:19:36;9.80;99.90
17879;DHT22;9065;51.050;13.758;2022-11-02T00:22:04;9.80;99.90
17879;DHT22;9065;51.050;13.758;2022-11-02T00:24:32;9.80;99.90
17879;DHT22;9065;51.050;13.758;2022-11-02T00:26:59;9.70;99.90
17879;DHT22;9065;51.050;13.758;2022-11-02T00:29:27;9.70;99.90
17879;DHT22;9065;51.050;13.758;2022-11-02T00:31:53;9.70;99.90
17879;DHT22;9065;51.050;13.758;2022-11-02T00:34:21;9.80;99.90
17879;DHT22;9065;51.050;13.758;2022-11-02T00:36:48;9.80;99.90
17879;DHT22;9065;51.050;13.758;2022-11-02T00:39:16;9.80;99.90
17879;DHT22;9065;51.050;13.758;2022-11-02T00:41:43;9.80;99.90
17879;DHT22;9065;51.050;13.758;2022-11-02T00:44:11;9.70;99.90
17879;DHT22;9065;51.050;13.758;2022-11-02T00:46:37;9.70;99.90
17879;DHT22;9065;51.050;13.758;2022-11-02T00:49:04;9.70;99.90
17879;DHT22;9065;51.050;13.758;2022-11-02T00:51:31;9.70;99.90
17879;DHT22;9065;51.050;13.758;2022-11-02T00:53:57;9.70;99.90
17879;DHT22;9065;51.050;13.758;2022-11-02T00:56:25;9.70;99.90
17879;DHT22;9065;51.050;13.758;2022-11-02T00:58:52;9.70;99.90
17879;DHT22;9065;51.050;13.758;2022-11-02T01:01:21;9.70;99.90
17879;DHT22;9065;51.050;13.758;2022-11-02T01:03:47;9.60;99.90
17879;DHT22;9065;51.050;13.758;2022-11-02T01:06:16;9.60;99.90
17879;DHT22;9065;51.050;13.758;2022-11-02T01:08:43;9.50;99.90
17879;DHT22;9065;51.050;13.758;2022-11-02T01:11:13;9.50;99.90
17879;DHT22;9065;51.050;13.758;2022-11-02T01:13:42;9.50;99.90
17879;DHT22;9065;51.050;13.758;2022-11-02T01:16:09;9.40;99.90
17879;DHT22;9065;51.050;13.758;2022-11-02T01:18:36;9.30;99.90
17879;DHT22;9065;51.050;13.758;2022-11-02T01:21:03;9.30;99.90
17879;DHT22;9065;51.050;13.758;2022-11-02T01:23:31;9.40;99.90
17879;DHT22;9065;51.050;13.758;2022-11-02T01:26:01;9.40;99.90
17879;DHT22;9065;51.050;13.758;2022-11-02T01:28:28;9.40;99.90
17879;DHT22;9065;51.050;13.758;2022-11-02T01:30:56;9.30;99.90
17879;DHT22;9065;51.050;13.758;2022-11-02T01:33:24;9.30;99.90
17879;DHT22;9065;51.050;13.758;2022-11-02T01:35:51;9.40;99.90
17879;DHT22;9065;51.050;13.758;2022-11-02T01:38:18;9.30;99.90
17879;DHT22;9065;51.050;13.758;2022-11-02T01:40:45;9.40;99.90
17879;DHT22;9065;51.050;13.758;2022-11-02T01:43:21;9.30;99.90
17879;DHT22;9065;51.050;13.758;2022-11-02T01:45:49;9.20;99.90
17879;DHT22;9065;51.050;13.758;2022-11-02T01:48:27;9.20;99.90
17879;DHT22;9065;51.050;13.758;2022-11-02T01:51:00;9.20;99.90
17879;DHT22;9065;51.050;13.758;2022-11-02T01:53:27;9.20;99.90
17879;DHT22;9065;51.050;13.758;2022-11-02T01:55:57;9.20;99.90
17879;DHT22;9065;51.050;13.758;2022-11-02T01:58:25;9.20;99.90
17879;DHT22;9065;51.050;13.758;2022-11-02T02:00:54;9.20;99.90
17879;DHT22;9065;51.050;13.758;2022-11-02T02:03:22;9.10;99.90
17879;DHT22;9065;51.050;13.758;2022-11-02T02:05:54;9.10;99.90
17879;DHT22;9065;51.050;13.758;2022-11-02T02:08:23;9.10;99.90
17879;DHT22;9065;51.050;13.758;2022-11-02T02:10:53;9.10;99.90
17879;DHT22;9065;51.050;13.758;2022-11-02T02:13:21;9.10;99.90
17879;DHT22;9065;51.050;13.758;2022-11-02T02:15:53;9.00;99.90
17879;DHT22;9065;51.050;13.758;2022-11-02T02:18:29;9.00;99.90
17879;DHT22;9065;51.050;13.758;2022-11-02T02:21:24;9.10;99.90
17879;DHT22;9065;51.050;13.758;2022-11-02T02:24:07;9.10;99.90
17879;DHT22;9065;51.050;13.758;2022-11-02T02:27:04;9.10;99.90
17879;DHT22;9065;51.050;13.758;2022-11-02T02:29:50;9.00;99.90
17879;DHT22;9065;51.050;13.758;2022-11-02T02:32:22;9.10;99.90
17879;DHT22;9065;51.050;13.758;2022-11-02T02:34:53;9.10;99.90
17879;DHT22;9065;51.050;13.758;2022-11-02T02:37:34;9.10;99.90
17879;DHT22;9065;51.050;13.758;2022-11-02T02:40:04;9.00;99.90
17879;DHT22;9065;51.050;13.758;2022-11-02T02:42:35;9.00;99.90
17879;DHT22;9065;51.050;13.758;2022-11-02T02:45:12;8.90;99.90
17879;DHT22;9065;51.050;13.758;2022-11-02T02:47:46;8.90;99.90
17879;DHT22;9065;51.050;13.758;2022-11-02T02:50:24;8.90;99.90
17879;DHT22;9065;51.050;13.758;2022-11-02T02:52:52;8.90;99.90
17879;DHT22;9065;51.050;13.758;2022-11-02T02:55:23;8.80;99.90
17879;DHT22;9065;51.050;13.758;2022-11-02T02:57:53;8.80;99.90
17879;DHT22;9065;51.050;13.758;2022-11-02T03:00:21;8.80;99.90
17879;DHT22;9065;51.050;13.758;2022-11-02T03:02:48;8.80;99.90
17879;DHT22;9065;51.050;13.758;2022-11-02T03:05:28;8.80;99.90
17879;DHT22;9065;51.050;13.758;2022-11-02T03:07:58;8.90;99.90
17879;DHT22;9065;51.050;13.758;2022-11-02T03:10:31;8.80;99.90
17879;DHT22;9065;51.050;13.758;2022-11-02T03:13:09;8.70;99.90
17879;DHT22;9065;51.050;13.758;2022-11-02T03:15:44;8.70;99.90
17879;DHT22;9065;51.050;13.758;2022-11-02T03:18:19;8.70;99.90
17879;DHT22;9065;51.050;13.758;2022-11-02T03:20:55;8.70;99.90
17879;DHT22;9065;51.050;13.758;2022-11-02T03:23:25;8.70;99.90
17879;DHT22;9065;51.050;13.758;2022-11-02T03:26:02;8.70;99.90
17879;DHT22;9065;51.050;13.758;2022-11-02T03:28:41;8.70;99.90
17879;DHT22;9065;51.050;13.758;2022-11-02T03:31:14;8.60;99.90
17879;DHT22;9065;51.050;13.758;2022-11-02T03:33:51;8.60;99.90
17879;DHT22;9065;51.050;13.758;2022-11-02T03:36:26;8.60;99.90
17879;DHT22;9065;51.050;13.758;2022-11-02T03:38:59;8.60;99.90
17879;DHT22;9065;51.050;13.758;2022-11-02T03:41:31;8.50;99.90
17879;DHT22;9065;51.050;13.758;2022-11-02T03:44:05;8.50;99.90
17879;DHT22;9065;51.050;13.758;2022-11-02T03:46:37;8.50;99.90
17879;DHT22;9065;51.050;13.758;2022-11-02T03:49:09;8.50;99.90
17879;DHT22;9065;51.050;13.758;2022-11-02T03:51:40;8.60;99.90
17879;DHT22;9065;51.050;13.758;2022-11-02T03:54:11;8.60;99.90
17879;DHT22;9065;51.050;13.758;2022-11-02T03:56:42;8.60;99.90
17879;DHT22;9065;51.050;13.758;2022-11-02T03:59:12;8.60;99.90
17879;DHT22;9065;51.050;13.758;2022-11-02T04:01:42;8.60;99.90
17879;DHT22;9065;51.050;13.758;2022-11-02T04:04:10;8.60;99.90
17879;DHT22;9065;51.050;13.758;2022-11-02T04:06:39;8.50;99.90
17879;DHT22;9065;51.050;13.758;2022-11-02T04:09:07;8.50;99.90
17879;DHT22;9065;51.050;13.758;2022-11-02T04:11:35;8.50;99.90
17879;DHT22;9065;51.050;13.758;2022-11-02T04:14:20;8.50;99.90
17879;DHT22;9065;51.050;13.758;2022-11-02T04:17:08;8.50;99.90
17879;DHT22;9065;51.050;13.758;2022-11-02T04:19:53;8.40;99.90
17879;DHT22;9065;51.050;13.758;2022-11-02T04:22:21;8.40;99.90
17879;DHT22;9065;51.050;13.758;2022-11-02T04:25:08;8.40;99.90
17879;DHT22;9065;51.050;13.758;2022-11-02T04:27:45;8.40;99.90
17879;DHT22;9065;51.050;13.758;2022-11-02T04:30:13;8.30;99.90
17879;DHT22;9065;51.050;13.758;2022-11-02T04:32:43;8.30;99.90
17879;DHT22;9065;51.050;13.758;2022-11-02T04:35:29;8.30;99.90
17879;DHT22;9065;51.050;13.758;2022-11-02T04:37:56;8.20;99.90
17879;DHT22;9065;51.050;13.758;2022-11-02T04:40:41;8.30;99.90
17879;DHT22;9065;51.050;13.758;2022-11-02T04:43:08;8.20;99.90
17879;DHT22;9065;51.050;13.758;2022-11-02T04:45:35;8.20;99.90
17879;DHT22;9065;51.050;13.758;2022-11-02T04:48:06;8.20;99.90
17879;DHT22;9065;51.050;13.758;2022-11-02T04:50:34;8.20;99.90
17879;DHT22;9065;51.050;13.758;2022-11-02T04:53:03;8.20;99.90
17879;DHT22;9065;51.050;13.758;2022-11-02T04:55:32;8.30;99.90
17879;DHT22;9065;51.050;13.758;2022-11-02T04:57:59;8.20;99.90
17879;DHT22;9065;51.050;13.758;2022-11-02T05:00:25;8.20;99.90
17879;DHT22;9065;51.050;13.758;2022-11-02T05:02:54;8.20;99.90
17879;DHT22;9065;51.050;13.758;2022-11-02T05:05:24;8.20;99.90
17879;DHT22;9065;51.050;13.758;2022-11-02T05:07:51;8.20;99.90
17879;DHT22;9065;51.050;13.758;2022-11-02T05:10:20;8.20;99.90
17879;DHT22;9065;51.050;13.758;2022-11-02T05:12:47;8.20;99.90
17879;DHT22;9065;51.050;13.758;2022-11-02T05:15:13;8.10;99.90
17879;DHT22;9065;51.050;13.758;2022-11-02T05:17:41;8.10;99.90
17879;DHT22;9065;51.050;13.758;2022-11-02T05:20:09;8.20;99.90
17879;DHT22;9065;51.050;13.758;2022-11-02T05:22:40;8.20;99.90
17879;DHT22;9065;51.050;13.758;2022-11-02T05:25:08;8.10;99.90
17879;DHT22;9065;51.050;13.758;2022-11-02T05:27:35;8.00;99.90
17879;DHT22;9065;51.050;13.758;2022-11-02T05:30:02;8.00;99.90
17879;DHT22;9065;51.050;13.758;2022-11-02T05:32:32;7.90;99.90
17879;DHT22;9065;51.050;13.758;2022-11-02T05:34:59;7.80;99.90
17879;DHT22;9065;51.050;13.758;2022-11-02T05:37:27;7.80;99.90
17879;DHT22;9065;51.050;13.758;2022-11-02T05:39:57;7.80;99.90
17879;DHT22;9065;51.050;13.758;2022-11-02T05:42:24;7.80;99.90
17879;DHT22;9065;51.050;13.758;2022-11-02T05:44:51;7.80;99.90
17879;DHT22;9065;51.050;13.758;2022-11-02T05:47:19;7.80;99.90
17879;DHT22;9065;51.050;13.758;2022-11-02T05:49:46;7.80;99.90
17879;DHT22;9065;51.050;13.758;2022-11-02T05:52:13;7.80;99.90
17879;DHT22;9065;51.050;13.758;2022-11-02T05:54:39;7.70;99.90
17879;DHT22;9065;51.050;13.758;2022-11-02T05:57:07;7.70;99.90
17879;DHT22;9065;51.050;13.758;2022-11-02T05:59:34;7.70;99.90
17879;DHT22;9065;51.050;13.758;2022-11-02T06:02:02;7.60;99.90
17879;DHT22;9065;51.050;13.758;2022-11-02T06:04:29;7.70;99.90
17879;DHT22;9065;51.050;13.758;2022-11-02T06:06:57;7.70;99.90
17879;DHT22;9065;51.050;13.758;2022-11-02T06:09:23;7.60;99.90
17879;DHT22;9065;51.050;13.758;2022-11-02T06:11:50;7.60;99.90
17879;DHT22;9065;51.050;13.758;2022-11-02T06:14:18;7.60;99.90
17879;DHT22;9065;51.050;13.758;2022-11-02T06:16:45;7.60;99.90
17879;DHT22;9065;51.050;13.758;2022-11-02T06:19:13;7.70;99.90
17879;DHT22;9065;51.050;13.758;2022-11-02T06:21:47;7.70;99.90
17879;DHT22;9065;51.050;13.758;2022-11-02T06:24:15;7.70;99.90
17879;DHT22;9065;51.050;13.758;2022-11-02T06:26:42;7.80;99.90
17879;DHT22;9065;51.050;13.758;2022-11-02T06:29:12;7.80;99.90
17879;DHT22;9065;51.050;13.758;2022-11-02T06:31:41;7.80;99.90
17879;DHT22;9065;51.050;13.758;2022-11-02T06:34:08;7.80;99.90
17879;DHT22;9065;51.050;13.758;2022-11-02T06:36:35;7.80;99.90
17879;DHT22;9065;51.050;13.758;2022-11-02T06:39:08;7.80;99.90
17879;DHT22;9065;51.050;13.758;2022-11-02T06:41:35;7.80;99.90
17879;DHT22;9065;51.050;13.758;2022-11-02T06:44:03;7.90;99.90
17879;DHT22;9065;51.050;13.758;2022-11-02T06:46:30;8.00;99.90
17879;DHT22;9065;51.050;13.758;2022-11-02T06:48:59;8.10;99.90
17879;DHT22;9065;51.050;13.758;2022-11-02T06:51:28;8.20;99.90
17879;DHT22;9065;51.050;13.758;2022-11-02T06:53:56;8.20;99.90
17879;DHT22;9065;51.050;13.758;2022-11-02T06:56:25;8.40;99.90
17879;DHT22;9065;51.050;13.758;2022-11-02T06:58:55;8.40;99.90
17879;DHT22;9065;51.050;13.758;2022-11-02T07:01:24;8.50;99.90
17879;DHT22;9065;51.050;13.758;2022-11-02T07:03:52;8.60;99.90
17879;DHT22;9065;51.050;13.758;2022-11-02T07:06:21;8.60;99.90
17879;DHT22;9065;51.050;13.758;2022-11-02T07:08:53;8.70;99.90
17879;DHT22;9065;51.050;13.758;2022-11-02T07:11:29;8.70;99.90
17879;DHT22;9065;51.050;13.758;2022-11-02T07:13:56;8.80;99.90
17879;DHT22;9065;51.050;13.758;2022-11-02T07:16:23;8.80;99.90
17879;DHT22;9065;51.050;13.758;2022-11-02T07:18:50;8.80;99.90
17879;DHT22;9065;51.050;13.758;2022-11-02T07:21:18;8.80;99.90
17879;DHT22;9065;51.050;13.758;2022-11-02T07:23:47;8.90;99.90
17879;DHT22;9065;51.050;13.758;2022-11-02T07:26:14;8.90;99.90
17879;DHT22;9065;51.050;13.758;2022-11-02T07:31:35;9.00;99.90
17879;DHT22;9065;51.050;13.758;2022-11-02T07:34:20;9.10;99.90
17879;DHT22;9065;51.050;13.758;2022-11-02T07:37:08;9.10;99.90
17879;DHT22;9065;51.050;13.758;2022-11-02T07:39:37;9.20;99.90
17879;DHT22;9065;51.050;13.758;2022-11-02T07:42:04;9.40;99.90
17879;DHT22;9065;51.050;13.758;2022-11-02T07:44:32;9.50;99.90
17879;DHT22;9065;51.050;13.758;2022-11-02T07:47:01;9.60;99.90
17879;DHT22;9065;51.050;13.758;2022-11-02T07:49:34;9.80;99.90
17879;DHT22;9065;51.050;13.758;2022-11-02T07:52:00;9.90;99.90
17879;DHT22;9065;51.050;13.758;2022-11-02T07:54:28;10.00;99.90
17879;DHT22;9065;51.050;13.758;2022-11-02T07:56:58;10.10;99.90
17879;DHT22;9065;51.050;13.758;2022-11-02T07:59:25;10.20;99.90
17879;DHT22;9065;51.050;13.758;2022-11-02T08:01:53;10.40;99.90
17879;DHT22;9065;51.050;13.758;2022-11-02T08:04:20;10.40;99.90
17879;DHT22;9065;51.050;13.758;2022-11-02T08:06:46;10.60;99.90
17879;DHT22;9065;51.050;13.758;2022-11-02T08:09:13;10.70;99.90
17879;DHT22;9065;51.050;13.758;2022-11-02T08:11:40;10.90;99.90
17879;DHT22;9065;51.050;13.758;2022-11-02T08:14:09;11.00;99.90
17879;DHT22;9065;51.050;13.758;2022-11-02T08:16:37;11.10;99.90
17879;DHT22;9065;51.050;13.758;2022-11-02T08:19:04;11.30;99.90
17879;DHT22;9065;51.050;13.758;2022-11-02T08:21:31;11.50;99.90
17879;DHT22;9065;51.050;13.758;2022-11-02T08:23:58;11.60;99.90
17879;DHT22;9065;51.050;13.758;2022-11-02T08:26:26;11.70;99.90
17879;DHT22;9065;51.050;13.758;2022-11-02T08:28:53;11.80;99.90
17879;DHT22;9065;51.050;13.758;2022-11-02T08:31:21;12.00;99.90
17879;DHT22;9065;51.050;13.758;2022-11-02T08:33:49;12.20;99.90
17879;DHT22;9065;51.050;13.758;2022-11-02T08:36:18;12.40;99.90
17879;DHT22;9065;51.050;13.758;2022-11-02T08:38:49;12.50;99.90
17879;DHT22;9065;51.050;13.758;2022-11-02T08:41:25;12.70;99.90
17879;DHT22;9065;51.050;13.758;2022-11-02T08:44:04;12.80;99.90
17879;DHT22;9065;51.050;13.758;2022-11-02T08:46:34;13.00;99.90
17879;DHT22;9065;51.050;13.758;2022-11-02T08:49:01;13.20;99.90
17879;DHT22;9065;51.050;13.758;2022-11-02T08:51:28;13.30;99.90
17879;DHT22;9065;51.050;13.758;2022-11-02T08:53:55;13.40;99.90
17879;DHT22;9065;51.050;13.758;2022-11-02T08:56:23;13.60;99.90
17879;DHT22;9065;51.050;13.758;2022-11-02T08:58:51;13.80;99.90
17879;DHT22;9065;51.050;13.758;2022-11-02T09:01:18;14.00;99.90
17879;DHT22;9065;51.050;13.758;2022-11-02T09:03:46;14.30;99.90
17879;DHT22;9065;51.050;13.758;2022-11-02T09:06:13;14.40;99.90
17879;DHT22;9065;51.050;13.758;2022-11-02T09:08:39;14.70;99.90
17879;DHT22;9065;51.050;13.758;2022-11-02T09:11:06;14.80;99.90
17879;DHT22;9065;51.050;13.758;2022-11-02T09:13:34;15.00;99.90
17879;DHT22;9065;51.050;13.758;2022-11-02T09:16:01;15.10;99.90
17879;DHT22;9065;51.050;13.758;2022-11-02T09:18:28;15.30;99.90
17879;DHT22;9065;51.050;13.758;2022-11-02T09:20:59;15.40;99.90
17879;DHT22;9065;51.050;13.758;2022-11-02T09:23:27;15.60;99.90
17879;DHT22;9065;51.050;13.758;2022-11-02T09:25:54;15.70;99.90
17879;DHT22;9065;51.050;13.758;2022-11-02T09:28:23;15.80;99.90
17879;DHT22;9065;51.050;13.758;2022-11-02T09:30:49;16.00;99.90
17879;DHT22;9065;51.050;13.758;2022-11-02T09:33:16;16.10;99.90
17879;DHT22;9065;51.050;13.758;2022-11-02T09:35:45;16.10;99.90
17879;DHT22;9065;51.050;13.758;2022-11-02T09:38:16;16.10;99.90
17879;DHT22;9065;51.050;13.758;2022-11-02T09:40:49;16.30;99.90
17879;DHT22;9065;51.050;13.758;2022-11-02T09:43:24;16.30;99.90
17879;DHT22;9065;51.050;13.758;2022-11-02T09:46:00;16.40;99.90
17879;DHT22;9065;51.050;13.758;2022-11-02T09:48:30;16.50;99.90
17879;DHT22;9065;51.050;13.758;2022-11-02T09:51:04;16.60;99.90
17879;DHT22;9065;51.050;13.758;2022-11-02T09:53:44;16.80;99.90
17879;DHT22;9065;51.050;13.758;2022-11-02T09:56:16;16.80;99.90
17879;DHT22;9065;51.050;13.758;2022-11-02T09:58:55;16.90;99.90
17879;DHT22;9065;51.050;13.758;2022-11-02T10:01:35;16.80;99.90
17879;DHT22;9065;51.050;13.758;2022-11-02T10:07:31;16.60;99.90
17879;DHT22;9065;51.050;13.758;2022-11-02T10:10:07;16.60;99.90
17879;DHT22;9065;51.050;13.758;2022-11-02T10:12:49;16.70;99.90
17879;DHT22;9065;51.050;13.758;2022-11-02T10:15:22;16.60;99.90
17879;DHT22;9065;51.050;13.758;2022-11-02T10:17:54;16.90;99.90
17879;DHT22;9065;51.050;13.758;2022-11-02T10:20:25;16.90;99.90
17879;DHT22;9065;51.050;13.758;2022-11-02T10:23:01;16.70;99.90
17879;DHT22;9065;51.050;13.758;2022-11-02T10:25:52;17.00;99.90
17879;DHT22;9065;51.050;13.758;2022-11-02T10:28:22;18.30;99.90
17879;DHT22;9065;51.050;13.758;2022-11-02T10:30:55;19.80;99.90
17879;DHT22;9065;51.050;13.758;2022-11-02T10:33:27;21.60;99.90
17879;DHT22;9065;51.050;13.758;2022-11-02T10:36:07;22.70;99.90
17879;DHT22;9065;51.050;13.758;2022-11-02T10:38:43;23.40;99.90
17879;DHT22;9065;51.050;13.758;2022-11-02T10:41:30;24.20;99.90
17879;DHT22;9065;51.050;13.758;2022-11-02T10:44:13;24.50;99.90
17879;DHT22;9065;51.050;13.758;2022-11-02T10:46:52;25.20;99.90
17879;DHT22;9065;51.050;13.758;2022-11-02T10:49:40;26.40;99.90
17879;DHT22;9065;51.050;13.758;2022-11-02T10:52:13;26.30;99.90
17879;DHT22;9065;51.050;13.758;2022-11-02T10:54:42;26.70;99.90
17879;DHT22;9065;51.050;13.758;2022-11-02T10:57:21;26.50;99.90
17879;DHT22;9065;51.050;13.758;2022-11-02T11:00:21;24.90;99.90
17879;DHT22;9065;51.050;13.758;2022-11-02T11:03:02;24.30;99.90
17879;DHT22;9065;51.050;13.758;2022-11-02T11:05:30;24.30;99.90
17879;DHT22;9065;51.050;13.758;2022-11-02T11:07:58;24.40;99.90
17879;DHT22;9065;51.050;13.758;2022-11-02T11:10:36;23.80;99.90
17879;DHT22;9065;51.050;13.758;2022-11-02T11:13:17;23.00;99.90
17879;DHT22;9065;51.050;13.758;2022-11-02T11:15:49;22.30;99.90
17879;DHT22;9065;51.050;13.758;2022-11-02T11:18:18;21.50;99.90
17879;DHT22;9065;51.050;13.758;2022-11-02T11:21:05;21.00;99.90
17879;DHT22;9065;51.050;13.758;2022-11-02T11:23:33;20.60;99.90
17879;DHT22;9065;51.050;13.758;2022-11-02T11:26:05;20.10;99.90
17879;DHT22;9065;51.050;13.758;2022-11-02T11:28:38;19.70;99.90
17879;DHT22;9065;51.050;13.758;2022-11-02T11:31:11;19.40;99.90
17879;DHT22;9065;51.050;13.758;2022-11-02T11:33:46;19.30;99.90
17879;DHT22;9065;51.050;13.758;2022-11-02T11:36:23;18.90;99.90
17879;DHT22;9065;51.050;13.758;2022-11-02T11:38:51;18.70;99.90
17879;DHT22;9065;51.050;13.758;2022-11-02T11:41:19;18.70;99.90
17879;DHT22;9065;51.050;13.758;2022-11-02T11:43:48;18.50;99.90
17879;DHT22;9065;51.050;13.758;2022-11-02T11:46:16;18.40;99.90
17879;DHT22;9065;51.050;13.758;2022-11-02T11:48:46;18.20;99.90
17879;DHT22;9065;51.050;13.758;2022-11-02T11:51:25;18.10;99.90
17879;DHT22;9065;51.050;13.758;2022-11-02T11:54:23;18.10;99.90
17879;DHT22;9065;51.050;13.758;2022-11-02T11:56:53;17.70;99.90
17879;DHT22;9065;51.050;13.758;2022-11-02T11:59:28;17.40;99.90
17879;DHT22;9065;51.050;13.758;2022-11-02T12:01:57;17.40;99.90
17879;DHT22;9065;51.050;13.758;2022-11-02T12:04:33;17.40;99.90
17879;DHT22;9065;51.050;13.758;2022-11-02T12:10:18;17.30;99.90
17879;DHT22;9065;51.050;13.758;2022-11-02T12:13:02;17.30;99.90
17879;DHT22;9065;51.050;13.758;2022-11-02T12:15:48;17.30;99.90
17879;DHT22;9065;51.050;13.758;2022-11-02T12:18:32;17.30;99.90
17879;DHT22;9065;51.050;13.758;2022-11-02T12:21:11;17.30;99.90
17879;DHT22;9065;51.050;13.758;2022-11-02T12:23:55;17.10;99.90
17879;DHT22;9065;51.050;13.758;2022-11-02T12:26:34;16.80;99.90
17879;DHT22;9065;51.050;13.758;2022-11-02T12:29:18;16.70;99.90
17879;DHT22;9065;51.050;13.758;2022-11-02T12:35:18;16.70;99.90
17879;DHT22;9065;51.050;13.758;2022-11-02T12:38:17;16.70;99.90
17879;DHT22;9065;51.050;13.758;2022-11-02T12:41:03;16.70;99.90
17879;DHT22;9065;51.050;13.758;2022-11-02T12:43:43;16.70;99.90
17879;DHT22;9065;51.050;13.758;2022-11-02T12:46:32;16.60;99.90
17879;DHT22;9065;51.050;13.758;2022-11-02T12:49:16;16.60;99.90
17879;DHT22;9065;51.050;13.758;2022-11-02T12:51:56;16.50;99.90
17879;DHT22;9065;51.050;13.758;2022-11-02T12:54:29;16.50;99.90
17879;DHT22;9065;51.050;13.758;2022-11-02T12:56:59;16.50;99.90
17879;DHT22;9065;51.050;13.758;2022-11-02T12:59:30;16.50;99.90
17879;DHT22;9065;51.050;13.758;2022-11-02T13:02:02;16.50;99.90
17879;DHT22;9065;51.050;13.758;2022-11-02T13:04:36;16.50;99.90
17879;DHT22;9065;51.050;13.758;2022-11-02T13:07:11;16.40;99.90
17879;DHT22;9065;51.050;13.758;2022-11-02T13:09:43;16.40;99.90
17879;DHT22;9065;51.050;13.758;2022-11-02T13:12:14;16.30;99.90
17879;DHT22;9065;51.050;13.758;2022-11-02T13:14:46;16.30;99.90
17879;DHT22;9065;51.050;13.758;2022-11-02T13:17:18;16.30;99.90
17879;DHT22;9065;51.050;13.758;2022-11-02T13:19:49;16.30;99.90
17879;DHT22;9065;51.050;13.758;2022-11-02T13:22:22;16.30;99.90
17879;DHT22;9065;51.050;13.758;2022-11-02T13:24:55;16.30;99.90
17879;DHT22;9065;51.050;13.758;2022-11-02T13:27:29;16.30;99.90
17879;DHT22;9065;51.050;13.758;2022-11-02T13:30:00;16.30;99.90
17879;DHT22;9065;51.050;13.758;2022-11-02T13:32:33;16.30;99.90
17879;DHT22;9065;51.050;13.758;2022-11-02T13:35:12;16.30;99.90
17879;DHT22;9065;51.050;13.758;2022-11-02T13:37:50;16.30;99.90
17879;DHT22;9065;51.050;13.758;2022-11-02T13:40:43;16.20;99.90
17879;DHT22;9065;51.050;13.758;2022-11-02T13:47:07;16.10;99.90
17879;DHT22;9065;51.050;13.758;2022-11-02T13:53:24;16.00;99.90
17879;DHT22;9065;51.050;13.758;2022-11-02T13:55:56;15.90;99.90
17879;DHT22;9065;51.050;13.758;2022-11-02T13:58:25;15.80;99.90
17879;DHT22;9065;51.050;13.758;2022-11-02T14:00:58;15.80;99.90
17879;DHT22;9065;51.050;13.758;2022-11-02T14:03:29;15.70;99.90
17879;DHT22;9065;51.050;13.758;2022-11-02T14:06:09;15.70;99.90
17879;DHT22;9065;51.050;13.758;2022-11-02T14:08:46;15.60;99.90
17879;DHT22;9065;51.050;13.758;2022-11-02T14:11:34;15.50;99.90
17879;DHT22;9065;51.050;13.758;2022-11-02T14:14:28;15.50;99.90
17879;DHT22;9065;51.050;13.758;2022-11-02T14:17:12;15.60;99.90
17879;DHT22;9065;51.050;13.758;2022-11-02T14:19:54;15.60;99.90
17879;DHT22;9065;51.050;13.758;2022-11-02T14:22:22;15.60;99.90
17879;DHT22;9065;51.050;13.758;2022-11-02T14:25:24;15.60;99.90
17879;DHT22;9065;51.050;13.758;2022-11-02T14:27:53;15.60;99.90
17879;DHT22;9065;51.050;13.758;2022-11-02T14:30:42;15.60;99.90
17879;DHT22;9065;51.050;13.758;2022-11-02T14:33:29;15.50;99.90
17879;DHT22;9065;51.050;13.758;2022-11-02T14:36:00;15.50;99.90
17879;DHT22;9065;51.050;13.758;2022-11-02T14:38:45;15.50;99.90
17879;DHT22;9065;51.050;13.758;2022-11-02T14:41:40;15.50;99.90
17879;DHT22;9065;51.050;13.758;2022-11-02T14:44:25;15.50;99.90
17879;DHT22;9065;51.050;13.758;2022-11-02T14:49:39;15.50;99.90
17879;DHT22;9065;51.050;13.758;2022-11-02T14:52:23;15.40;99.90
17879;DHT22;9065;51.050;13.758;2022-11-02T14:54:57;15.40;99.90
17879;DHT22;9065;51.050;13.758;2022-11-02T14:57:29;15.40;99.90
17879;DHT22;9065;51.050;13.758;2022-11-02T15:00:00;15.30;99.90
17879;DHT22;9065;51.050;13.758;2022-11-02T15:02:32;15.20;99.90
17879;DHT22;9065;51.050;13.758;2022-11-02T15:05:05;15.20;99.90
17879;DHT22;9065;51.050;13.758;2022-11-02T15:07:35;15.10;99.90
17879;DHT22;9065;51.050;13.758;2022-11-02T15:10:11;15.00;99.90
17879;DHT22;9065;51.050;13.758;2022-11-02T15:16:25;14.90;99.90
17879;DHT22;9065;51.050;13.758;2022-11-02T15:19:34;14.90;99.90
17879;DHT22;9065;51.050;13.758;2022-11-02T15:22:28;14.80;99.90
17879;DHT22;9065;51.050;13.758;2022-11-02T15:25:02;14.80;99.90
17879;DHT22;9065;51.050;13.758;2022-11-02T15:27:31;14.80;99.90
17879;DHT22;9065;51.050;13.758;2022-11-02T15:30:00;14.70;99.90
17879;DHT22;9065;51.050;13.758;2022-11-02T15:32:33;14.70;99.90
17879;DHT22;9065;51.050;13.758;2022-11-02T15:35:04;14.70;99.90
17879;DHT22;9065;51.050;13.758;2022-11-02T15:37:37;14.60;99.90
17879;DHT22;9065;51.050;13.758;2022-11-02T15:40:16;14.60;99.90
17879;DHT22;9065;51.050;13.758;2022-11-02T15:42:51;14.50;99.90
17879;DHT22;9065;51.050;13.758;2022-11-02T15:45:35;14.40;99.90
17879;DHT22;9065;51.050;13.758;2022-11-02T15:48:21;14.30;99.90
17879;DHT22;9065;51.050;13.758;2022-11-02T15:50:56;14.20;99.90
17879;DHT22;9065;51.050;13.758;2022-11-02T15:56:48;14.10;99.90
17879;DHT22;9065;51.050;13.758;2022-11-02T15:59:51;14.00;99.90
17879;DHT22;9065;51.050;13.758;2022-11-02T16:02:26;14.00;99.90
17879;DHT22;9065;51.050;13.758;2022-11-02T16:04:57;14.00;99.90
17879;DHT22;9065;51.050;13.758;2022-11-02T16:07:25;14.00;99.90
17879;DHT22;9065;51.050;13.758;2022-11-02T16:09:52;14.00;99.90
17879;DHT22;9065;51.050;13.758;2022-11-02T16:12:22;14.10;99.90
17879;DHT22;9065;51.050;13.758;2022-11-02T16:14:53;14.10;99.90
17879;DHT22;9065;51.050;13.758;2022-11-02T16:17:24;14.00;99.90
17879;DHT22;9065;51.050;13.758;2022-11-02T16:19:51;14.00;99.90
17879;DHT22;9065;51.050;13.758;2022-11-02T16:22:35;14.00;99.90
17879;DHT22;9065;51.050;13.758;2022-11-02T16:25:09;14.00;99.90
17879;DHT22;9065;51.050;13.758;2022-11-02T16:27:38;14.00;99.90
17879;DHT22;9065;51.050;13.758;2022-11-02T16:30:06;13.90;99.90
17879;DHT22;9065;51.050;13.758;2022-11-02T16:32:33;13.90;99.90
17879;DHT22;9065;51.050;13.758;2022-11-02T16:35:00;13.80;99.90
17879;DHT22;9065;51.050;13.758;2022-11-02T16:37:28;13.80;99.90
17879;DHT22;9065;51.050;13.758;2022-11-02T16:39:57;13.70;99.90